Time;durP1;ratioP1;P1;durP2;ratioP2;P2;SDS_P1;SDS_P2;PMS_P1;PMS_P2;Temp;Humidity;BMP_temperature;BMP_pressure;BME280_temperature;BME280_humidity;BME280_pressure;Samples;Min_cycle;Max_cycle;Signal;HPM_P1;HPM_P2
2023/08/31 00:00:56;;;;;;;3.73;3.10;;;;;;;;;;5028193;28;20182;-74
2023/08/31 00:03:22;;;;;;;3.33;3.03;;;;;;;;;;5027632;28;20198;-75
2023/08/31 00:05:51;;;;;;;4.57;3.53;;;;;;;;;;5027189;28;20262;-74
2023/08/31 00:08:17;;;;;;;4.80;3.07;;;;;;;;;;5028437;28;20269;-75
2023/08/31 00:10:44;;;;;;;3.97;3.13;;;;;;;;;;5027427;28;20194;-74
2023/08/31 00:13:12;;;;;;;3.43;2.70;;;;;;;;;;5028314;28;20221;-74
2023/08/31 00:15:38;;;;;;;3.73;3.00;;;;;;;;;;5027512;28;20273;-75
2023/08/31 00:18:04;;;;;;;3.53;2.80;;;;;;;;;;5006862;28;20217;-75
2023/08/31 00:20:31;;;;;;;4.00;2.80;;;;;;;;;;5029395;28;20207;-75
2023/08/31 00:22:58;;;;;;;3.30;2.70;;;;;;;;;;5027699;28;20669;-74
2023/08/31 00:25:24;;;;;;;4.07;2.80;;;;;;;;;;5029052;28;20179;-75
2023/08/31 00:27:52;;;;;;;3.57;2.80;;;;;;;;;;4994552;28;20687;-75
2023/08/31 00:30:18;;;;;;;4.20;2.53;;;;;;;;;;5028347;28;20193;-74
2023/08/31 00:32:47;;;;;;;3.60;2.73;;;;;;;;;;5010431;28;20218;-74
2023/08/31 00:35:13;;;;;;;4.83;2.90;;;;;;;;;;5027656;28;20269;-75
2023/08/31 00:37:39;;;;;;;5.83;3.10;;;;;;;;;;4992789;28;20203;-75
2023/08/31 00:40:08;;;;;;;3.23;2.93;;;;;;;;;;5010583;28;20661;-75
2023/08/31 00:42:37;;;;;;;3.10;2.80;;;;;;;;;;5009950;28;20208;-75
2023/08/31 00:45:05;;;;;;;3.27;2.97;;;;;;;;;;4993515;28;20199;-75
2023/08/31 00:47:31;;;;;;;2.97;2.73;;;;;;;;;;5010129;28;20248;-75
2023/08/31 00:49:59;;;;;;;5.80;2.80;;;;;;;;;;5028042;28;20568;-75
2023/08/31 00:52:25;;;;;;;4.00;3.20;;;;;;;;;;5011691;28;20807;-75
2023/08/31 00:54:51;;;;;;;5.50;2.97;;;;;;;;;;4997848;28;20672;-75
2023/08/31 00:57:18;;;;;;;4.37;3.10;;;;;;;;;;5006434;28;20195;-75
2023/08/31 00:59:44;;;;;;;5.17;3.30;;;;;;;;;;5029056;28;20206;-75
2023/08/31 01:02:16;;;;;;;6.63;3.57;;;;;;;;;;5014065;28;20576;-75
2023/08/31 01:04:48;;;;;;;3.37;2.93;;;;;;;;;;4996482;28;20236;-75
2023/08/31 01:07:24;;;;;;;4.10;3.07;;;;;;;;;;5013511;28;20190;-75
2023/08/31 01:09:56;;;;;;;3.37;3.00;;;;;;;;;;5013425;28;20248;-75
2023/08/31 01:12:29;;;;;;;3.40;3.00;;;;;;;;;;5031510;28;20732;-75
2023/08/31 01:14:58;;;;;;;4.40;3.00;;;;;;;;;;5030418;28;20186;-75
2023/08/31 01:17:26;;;;;;;3.63;3.00;;;;;;;;;;5031670;28;20237;-75
2023/08/31 01:19:53;;;;;;;4.50;3.10;;;;;;;;;;5031170;28;20224;-74
2023/08/31 01:22:25;;;;;;;2.90;2.70;;;;;;;;;;5031204;28;20248;-75
2023/08/31 01:24:52;;;;;;;3.70;2.93;;;;;;;;;;5013585;28;20190;-75
2023/08/31 01:27:19;;;;;;;5.30;3.30;;;;;;;;;;5013822;28;20186;-75
2023/08/31 01:29:45;;;;;;;5.10;3.10;;;;;;;;;;5031161;28;20228;-75
2023/08/31 01:32:12;;;;;;;3.77;3.30;;;;;;;;;;5030899;28;20186;-75
2023/08/31 01:34:39;;;;;;;3.63;3.30;;;;;;;;;;5031338;28;20260;-75
2023/08/31 01:37:20;;;;;;;3.67;2.93;;;;;;;;;;5013574;28;20215;-75
2023/08/31 01:39:50;;;;;;;4.53;3.33;;;;;;;;;;5030684;28;20199;-75
2023/08/31 01:42:16;;;;;;;5.50;3.00;;;;;;;;;;5030906;28;20179;-75
2023/08/31 01:44:43;;;;;;;4.50;3.50;;;;;;;;;;5012967;28;20265;-75
2023/08/31 01:47:10;;;;;;;4.50;3.30;;;;;;;;;;5013440;28;20642;-75
2023/08/31 01:49:40;;;;;;;3.60;3.10;;;;;;;;;;5030736;28;20324;-75
2023/08/31 01:52:07;;;;;;;4.63;3.27;;;;;;;;;;5007615;28;20379;-75
2023/08/31 01:54:33;;;;;;;4.13;3.00;;;;;;;;;;5012946;28;20182;-75
2023/08/31 01:56:59;;;;;;;3.70;3.10;;;;;;;;;;5013257;28;20205;-75
2023/08/31 01:59:27;;;;;;;5.53;3.10;;;;;;;;;;5016031;28;20246;-75
2023/08/31 02:01:53;;;;;;;3.93;3.13;;;;;;;;;;5012687;28;20201;-75
2023/08/31 02:04:19;;;;;;;4.57;3.40;;;;;;;;;;5012398;28;20544;-74
2023/08/31 02:06:45;;;;;;;3.70;3.20;;;;;;;;;;5030560;28;20676;-74
2023/08/31 02:09:11;;;;;;;4.80;3.30;;;;;;;;;;4994753;28;20191;-75
2023/08/31 02:11:38;;;;;;;4.60;3.17;;;;;;;;;;5013911;28;20190;-75
2023/08/31 02:14:05;;;;;;;4.70;3.23;;;;;;;;;;5012445;28;20206;-75
2023/08/31 02:16:31;;;;;;;5.17;3.70;;;;;;;;;;5028045;28;20205;-74
2023/08/31 02:18:58;;;;;;;4.17;3.40;;;;;;;;;;5036966;28;20214;-75
2023/08/31 02:21:24;;;;;;;4.37;3.53;;;;;;;;;;5018689;28;20237;-75
2023/08/31 02:23:52;;;;;;;4.13;3.70;;;;;;;;;;5012261;28;20281;-74
2023/08/31 02:26:19;;;;;;;3.97;3.50;;;;;;;;;;5013268;28;20799;-75
2023/08/31 02:28:46;;;;;;;4.87;3.70;;;;;;;;;;5012284;28;20193;-74
2023/08/31 02:31:14;;;;;;;6.13;4.00;;;;;;;;;;5030041;28;20194;-74
2023/08/31 02:33:40;;;;;;;6.50;4.07;;;;;;;;;;5028968;28;20243;-75
2023/08/31 02:36:06;;;;;;;5.90;4.80;;;;;;;;;;5029299;28;20237;-75
2023/08/31 02:38:32;;;;;;;5.67;3.93;;;;;;;;;;5032328;28;20214;-74
2023/08/31 02:40:59;;;;;;;5.57;4.00;;;;;;;;;;5027081;28;20594;-74
2023/08/31 02:43:25;;;;;;;6.77;4.47;;;;;;;;;;5017838;28;20203;-74
2023/08/31 02:45:59;;;;;;;6.43;4.47;;;;;;;;;;5012510;28;20186;-74
2023/08/31 02:48:25;;;;;;;6.77;4.70;;;;;;;;;;5011805;28;20182;-74
2023/08/31 02:50:51;;;;;;;5.00;4.50;;;;;;;;;;5014305;28;20182;-74
2023/08/31 02:53:17;;;;;;;7.07;4.77;;;;;;;;;;5024105;28;20209;-74
2023/08/31 02:55:43;;;;;;;5.80;4.73;;;;;;;;;;5039971;28;20187;-75
2023/08/31 02:58:10;;;;;;;6.13;4.47;;;;;;;;;;5011638;28;20285;-74
2023/08/31 03:00:39;;;;;;;5.28;4.75;;;;;;;;;;4998668;28;20433;-73
2023/08/31 03:03:05;;;;;;;8.10;5.10;;;;;;;;;;4992315;28;20548;-75
2023/08/31 03:05:31;;;;;;;5.10;4.47;;;;;;;;;;5028060;28;20260;-75
2023/08/31 03:07:58;;;;;;;5.00;4.17;;;;;;;;;;5029538;28;20190;-74
2023/08/31 03:10:24;;;;;;;6.10;4.63;;;;;;;;;;5011846;28;20555;-75
2023/08/31 03:12:50;;;;;;;6.27;4.70;;;;;;;;;;5011741;28;20210;-75
2023/08/31 03:15:16;;;;;;;5.43;4.83;;;;;;;;;;5011685;28;20197;-75
2023/08/31 03:17:43;;;;;;;10.83;5.07;;;;;;;;;;5011407;28;20600;-75
2023/08/31 03:20:10;;;;;;;6.60;4.90;;;;;;;;;;5011551;28;20193;-75
2023/08/31 03:22:36;;;;;;;5.20;4.70;;;;;;;;;;5029069;28;20202;-75
2023/08/31 03:25:02;;;;;;;5.53;4.93;;;;;;;;;;5011584;28;20201;-75
2023/08/31 03:27:29;;;;;;;6.00;4.77;;;;;;;;;;5011034;28;20181;-75
2023/08/31 03:29:56;;;;;;;6.40;4.63;;;;;;;;;;5012874;28;20630;-75
2023/08/31 03:32:22;;;;;;;5.77;4.93;;;;;;;;;;5045005;22;20584;31
2023/08/31 03:34:48;;;;;;;5.70;5.07;;;;;;;;;;5006868;28;20283;-74
2023/08/31 03:37:14;;;;;;;5.53;4.93;;;;;;;;;;4991985;28;20175;-74
2023/08/31 03:39:42;;;;;;;5.67;4.73;;;;;;;;;;5008846;28;20294;-74
2023/08/31 03:42:09;;;;;;;5.00;4.50;;;;;;;;;;4990859;28;20199;-74
2023/08/31 03:44:37;;;;;;;7.17;4.83;;;;;;;;;;5009413;28;20195;-74
2023/08/31 03:47:03;;;;;;;7.40;5.07;;;;;;;;;;4991519;28;20673;-75
2023/08/31 03:49:31;;;;;;;5.80;4.80;;;;;;;;;;4991612;28;20209;-75
2023/08/31 03:51:58;;;;;;;6.53;4.60;;;;;;;;;;5007319;28;20187;-75
2023/08/31 03:54:24;;;;;;;5.53;4.50;;;;;;;;;;5018009;28;20204;-75
2023/08/31 03:56:51;;;;;;;6.93;5.40;;;;;;;;;;5007906;28;20194;-75
2023/08/31 03:59:18;;;;;;;6.00;5.03;;;;;;;;;;4988869;28;20211;-75
2023/08/31 04:01:44;;;;;;;6.30;5.57;;;;;;;;;;4991356;28;20659;-75
2023/08/31 04:04:11;;;;;;;7.73;5.20;;;;;;;;;;4987746;28;20206;-75
2023/08/31 04:06:38;;;;;;;5.70;4.97;;;;;;;;;;4990663;28;20175;-75
2023/08/31 04:09:05;;;;;;;7.63;5.60;;;;;;;;;;4991031;28;20508;-75
2023/08/31 04:11:33;;;;;;;5.00;4.50;;;;;;;;;;4986708;28;20659;-75
2023/08/31 04:13:59;;;;;;;5.30;4.83;;;;;;;;;;4990881;28;20206;-75
2023/08/31 04:16:25;;;;;;;5.87;4.60;;;;;;;;;;4991614;28;20278;-75
2023/08/31 04:18:52;;;;;;;6.77;4.70;;;;;;;;;;4991783;28;20218;-74
2023/08/31 04:21:18;;;;;;;6.67;4.83;;;;;;;;;;5006051;28;20179;-74
2023/08/31 04:23:45;;;;;;;6.47;4.67;;;;;;;;;;5008817;28;20199;-75
2023/08/31 04:26:14;;;;;;;5.97;5.37;;;;;;;;;;5009019;28;20183;-75
2023/08/31 04:28:42;;;;;;;6.97;5.00;;;;;;;;;;5012152;28;20916;-75
2023/08/31 04:31:08;;;;;;;6.80;5.30;;;;;;;;;;4994950;28;20187;-74
2023/08/31 04:33:35;;;;;;;6.53;4.90;;;;;;;;;;5012124;28;20223;-74
2023/08/31 04:36:01;;;;;;;5.77;5.13;;;;;;;;;;5010330;28;20188;-74
2023/08/31 04:38:28;;;;;;;5.33;4.60;;;;;;;;;;5012699;28;20199;-75
2023/08/31 04:40:54;;;;;;;6.50;4.90;;;;;;;;;;5011979;28;20218;-75
2023/08/31 04:43:20;;;;;;;4.63;4.23;;;;;;;;;;4993677;28;20261;-75
2023/08/31 04:45:46;;;;;;;6.87;4.83;;;;;;;;;;5008205;28;20175;-75
2023/08/31 04:48:14;;;;;;;5.23;4.70;;;;;;;;;;5009963;28;20237;-75
2023/08/31 04:50:40;;;;;;;5.17;4.53;;;;;;;;;;5010717;28;20628;-74
2023/08/31 04:53:06;;;;;;;5.97;4.70;;;;;;;;;;5011724;28;20210;-74
2023/08/31 04:55:32;;;;;;;5.00;4.50;;;;;;;;;;5012075;28;20194;-74
2023/08/31 04:57:58;;;;;;;6.27;4.47;;;;;;;;;;5012325;28;20256;-74
2023/08/31 05:00:24;;;;;;;4.70;4.27;;;;;;;;;;5011904;28;20194;-74
2023/08/31 05:02:51;;;;;;;7.80;4.57;;;;;;;;;;5011888;28;20253;-74
2023/08/31 05:05:18;;;;;;;5.77;4.30;;;;;;;;;;5012206;28;20237;-74
2023/08/31 05:07:44;;;;;;;7.23;4.87;;;;;;;;;;5011959;28;20191;-75
2023/08/31 05:10:11;;;;;;;4.80;4.30;;;;;;;;;;5011829;28;20179;-75
2023/08/31 05:12:37;;;;;;;6.57;4.97;;;;;;;;;;5011357;28;20915;-75
2023/08/31 05:15:04;;;;;;;6.20;4.73;;;;;;;;;;5011882;28;20175;-75
2023/08/31 05:17:31;;;;;;;5.00;4.37;;;;;;;;;;5009125;28;20273;-74
2023/08/31 05:19:57;;;;;;;6.97;4.30;;;;;;;;;;5011561;28;20298;-75
2023/08/31 05:22:23;;;;;;;6.30;4.53;;;;;;;;;;5011250;28;20179;-74
2023/08/31 05:24:49;;;;;;;4.73;4.20;;;;;;;;;;5011675;28;20179;-74
2023/08/31 05:27:16;;;;;;;8.63;4.43;;;;;;;;;;5027229;28;20551;-74
2023/08/31 05:29:42;;;;;;;5.23;4.47;;;;;;;;;;5010929;28;20179;-74
2023/08/31 05:32:08;;;;;;;7.73;4.70;;;;;;;;;;5011248;28;20187;-75
2023/08/31 05:34:37;;;;;;;7.70;5.27;;;;;;;;;;5011052;28;20239;-74
2023/08/31 05:37:06;;;;;;;6.27;4.23;;;;;;;;;;5011345;28;20194;-74
2023/08/31 05:39:33;;;;;;;4.93;4.37;;;;;;;;;;5010946;28;20206;-74
2023/08/31 05:41:59;;;;;;;5.67;3.53;;;;;;;;;;4993787;28;20194;-74
2023/08/31 05:44:25;;;;;;;6.47;4.30;;;;;;;;;;5011222;28;20294;-74
2023/08/31 05:46:51;;;;;;;6.40;4.47;;;;;;;;;;4993514;28;20221;-74
2023/08/31 05:49:17;;;;;;;6.17;4.23;;;;;;;;;;5011254;28;20233;-74
2023/08/31 05:51:43;;;;;;;6.43;4.60;;;;;;;;;;5011021;28;20282;-74
2023/08/31 05:54:11;;;;;;;6.47;4.00;;;;;;;;;;5011030;28;20578;-74
2023/08/31 05:56:41;;;;;;;6.13;4.30;;;;;;;;;;5023296;28;20210;-75
2023/08/31 05:59:07;;;;;;;4.57;4.13;;;;;;;;;;5010943;28;20207;-75
2023/08/31 06:01:35;;;;;;;6.50;4.00;;;;;;;;;;5010645;28;20175;-74
2023/08/31 06:04:03;;;;;;;5.90;4.30;;;;;;;;;;5010760;28;20199;-74
2023/08/31 06:06:29;;;;;;;6.53;4.10;;;;;;;;;;5009205;28;20194;-75
2023/08/31 06:08:56;;;;;;;4.77;4.20;;;;;;;;;;5010769;28;20248;-75
2023/08/31 06:11:22;;;;;;;6.93;4.23;;;;;;;;;;5010939;28;20210;-75
2023/08/31 06:13:48;;;;;;;6.43;4.00;;;;;;;;;;5010587;28;20205;-74
2023/08/31 06:16:15;;;;;;;6.70;4.10;;;;;;;;;;5011470;28;20199;-77
2023/08/31 06:18:41;;;;;;;6.57;4.37;;;;;;;;;;5009890;28;20215;-74
2023/08/31 06:21:07;;;;;;;5.83;4.20;;;;;;;;;;4984443;28;20191;-77
2023/08/31 06:23:33;;;;;;;5.73;3.93;;;;;;;;;;5001742;28;20192;-75
2023/08/31 06:25:59;;;;;;;5.80;4.70;;;;;;;;;;5002524;28;20254;-75
2023/08/31 06:28:25;;;;;;;6.70;4.27;;;;;;;;;;5002349;28;20180;-76
2023/08/31 06:30:52;;;;;;;5.70;3.93;;;;;;;;;;5003903;28;20203;-75
2023/08/31 06:33:18;;;;;;;8.30;4.40;;;;;;;;;;5005669;28;20226;-75
2023/08/31 06:35:51;;;;;;;7.43;4.60;;;;;;;;;;4999834;28;20188;-76
2023/08/31 06:38:17;;;;;;;5.43;4.30;;;;;;;;;;5003268;28;20238;-73
2023/08/31 06:40:43;;;;;;;5.13;4.20;;;;;;;;;;4986368;28;20310;-74
2023/08/31 06:43:10;;;;;;;5.43;4.07;;;;;;;;;;5000892;28;20253;-75
2023/08/31 06:45:36;;;;;;;6.60;4.37;;;;;;;;;;4999128;28;20268;-73
2023/08/31 06:48:02;;;;;;;6.23;4.17;;;;;;;;;;5001902;28;20188;-77
2023/08/31 06:50:29;;;;;;;6.23;4.50;;;;;;;;;;5005224;28;20188;-76
2023/08/31 06:52:55;;;;;;;5.63;4.27;;;;;;;;;;5003344;28;20226;-76
2023/08/31 06:55:21;;;;;;;5.37;4.27;;;;;;;;;;5012282;28;20175;-82
2023/08/31 06:57:47;;;;;;;6.03;4.43;;;;;;;;;;4989967;28;20940;-81
2023/08/31 07:00:13;;;;;;;5.90;4.10;;;;;;;;;;5005733;28;20183;-80
2023/08/31 07:02:41;;;;;;;6.03;4.37;;;;;;;;;;5009222;28;20187;-74
2023/08/31 07:05:08;;;;;;;5.97;4.30;;;;;;;;;;5001151;28;20187;-75
2023/08/31 07:07:34;;;;;;;5.27;4.33;;;;;;;;;;5002185;28;20665;-76
2023/08/31 07:10:00;;;;;;;5.70;4.70;;;;;;;;;;5003485;28;20266;-76
2023/08/31 07:12:27;;;;;;;7.10;4.37;;;;;;;;;;4986100;28;20193;-76
2023/08/31 07:14:53;;;;;;;5.97;4.10;;;;;;;;;;5017477;28;20226;-75
2023/08/31 07:17:19;;;;;;;5.47;4.33;;;;;;;;;;5003761;28;20196;-77
2023/08/31 07:19:50;;;;;;;6.57;4.47;;;;;;;;;;5003029;28;20294;-77
2023/08/31 07:22:17;;;;;;;5.77;4.40;;;;;;;;;;5000743;28;20229;-76
2023/08/31 07:24:43;;;;;;;6.53;4.27;;;;;;;;;;4986084;28;20258;-77
2023/08/31 07:27:09;;;;;;;4.53;3.77;;;;;;;;;;5002651;28;20323;-77
2023/08/31 07:29:35;;;;;;;7.63;4.40;;;;;;;;;;4982320;28;20562;-77
2023/08/31 07:32:02;;;;;;;5.00;4.10;;;;;;;;;;5001232;28;20202;-77
2023/08/31 07:34:29;;;;;;;5.13;3.73;;;;;;;;;;5000933;28;20293;-77
2023/08/31 07:36:55;;;;;;;7.03;4.13;;;;;;;;;;5000069;28;20680;-77
2023/08/31 07:39:21;;;;;;;6.40;4.20;;;;;;;;;;4986616;28;20246;-76
2023/08/31 07:41:47;;;;;;;5.97;4.00;;;;;;;;;;5003629;28;20183;-76
2023/08/31 07:44:13;;;;;;;7.93;3.90;;;;;;;;;;4999928;28;20329;-76
2023/08/31 07:46:40;;;;;;;6.80;4.00;;;;;;;;;;4983383;28;20557;-76
2023/08/31 07:49:06;;;;;;;5.37;3.73;;;;;;;;;;5018188;28;20254;-76
2023/08/31 07:51:32;;;;;;;7.63;3.97;;;;;;;;;;4999189;28;20182;-76
2023/08/31 07:54:00;;;;;;;7.03;4.07;;;;;;;;;;5002427;28;20210;-76
2023/08/31 07:56:26;;;;;;;4.47;3.87;;;;;;;;;;5003746;28;20664;-76
2023/08/31 07:58:53;;;;;;;6.77;3.93;;;;;;;;;;5004455;28;21655;-76
2023/08/31 08:01:19;;;;;;;5.33;3.17;;;;;;;;;;5003962;28;20666;-76
2023/08/31 08:03:45;;;;;;;7.30;3.57;;;;;;;;;;5006007;28;20205;-76
2023/08/31 08:06:11;;;;;;;3.87;3.00;;;;;;;;;;5008283;28;20193;-76
2023/08/31 08:08:37;;;;;;;4.90;2.80;;;;;;;;;;4988757;28;20190;-77
2023/08/31 08:11:04;;;;;;;5.73;3.10;;;;;;;;;;5007330;28;20571;-76
2023/08/31 08:13:31;;;;;;;4.67;2.80;;;;;;;;;;5007271;28;20202;-76
2023/08/31 08:15:57;;;;;;;5.80;2.70;;;;;;;;;;5007009;28;20179;-76
2023/08/31 08:18:23;;;;;;;3.93;2.50;;;;;;;;;;5006398;28;20682;-76
2023/08/31 08:20:50;;;;;;;4.83;2.73;;;;;;;;;;5007518;28;20179;-76
2023/08/31 08:23:16;;;;;;;6.03;2.70;;;;;;;;;;5008947;28;20199;-77
2023/08/31 08:25:43;;;;;;;3.60;2.40;;;;;;;;;;5006546;28;20233;-77
2023/08/31 08:28:09;;;;;;;4.23;2.40;;;;;;;;;;5006144;28;20186;-76
2023/08/31 08:30:36;;;;;;;4.23;2.53;;;;;;;;;;4991390;28;20175;-77
2023/08/31 08:33:02;;;;;;;5.17;2.67;;;;;;;;;;5006340;28;20211;-76
2023/08/31 08:35:28;;;;;;;5.27;2.77;;;;;;;;;;4999061;28;20192;-76
2023/08/31 08:37:54;;;;;;;5.50;2.63;;;;;;;;;;5005524;28;20183;-76
2023/08/31 08:40:21;;;;;;;6.03;2.50;;;;;;;;;;4989563;28;20205;-77
2023/08/31 08:42:47;;;;;;;4.90;2.77;;;;;;;;;;5006871;28;20203;-77
2023/08/31 08:45:17;;;;;;;4.90;2.30;;;;;;;;;;5012950;28;20187;-77
2023/08/31 08:47:44;;;;;;;3.77;2.43;;;;;;;;;;5013282;28;20214;-76
2023/08/31 08:50:11;;;;;;;4.10;2.53;;;;;;;;;;5012629;28;20257;-77
2023/08/31 08:52:37;;;;;;;5.13;2.70;;;;;;;;;;4992423;28;20219;-76
2023/08/31 08:55:03;;;;;;;4.90;2.43;;;;;;;;;;5010268;28;20207;-77
2023/08/31 08:57:31;;;;;;;6.10;2.90;;;;;;;;;;4993343;28;20183;-77
2023/08/31 09:00:00;;;;;;;5.23;2.60;;;;;;;;;;5005008;28;20231;-78
2023/08/31 09:02:26;;;;;;;4.70;2.70;;;;;;;;;;5012185;28;20214;-78
2023/08/31 09:04:54;;;;;;;5.67;2.63;;;;;;;;;;4963508;28;20219;-80
2023/08/31 09:07:24;;;;;;;5.63;2.57;;;;;;;;;;5025113;28;20782;-80
2023/08/31 09:09:53;;;;;;;4.77;2.40;;;;;;;;;;5010705;28;20286;-80
2023/08/31 09:12:24;;;;;;;4.10;2.40;;;;;;;;;;5017609;28;20256;-80
2023/08/31 09:14:59;;;;;;;4.43;2.50;;;;;;;;;;4994825;28;20610;-80
2023/08/31 09:17:26;;;;;;;4.50;2.40;;;;;;;;;;5023860;28;20214;-79
2023/08/31 09:20:00;;;;;;;3.73;2.30;;;;;;;;;;4989911;28;20747;-80
2023/08/31 09:22:26;;;;;;;8.03;2.07;;;;;;;;;;4977670;28;20246;-80
2023/08/31 09:24:52;;;;;;;3.33;2.00;;;;;;;;;;5029634;28;20233;-80
2023/08/31 09:27:20;;;;;;;5.20;2.30;;;;;;;;;;5006029;28;20256;-80
2023/08/31 09:29:47;;;;;;;4.17;2.00;;;;;;;;;;4992324;28;20194;-80
2023/08/31 09:32:19;;;;;;;5.67;2.30;;;;;;;;;;5026725;28;20191;-80
2023/08/31 09:34:45;;;;;;;3.83;1.87;;;;;;;;;;5067143;22;20225;-80
2023/08/31 09:37:12;;;;;;;3.97;2.03;;;;;;;;;;5053504;28;20266;-80
2023/08/31 09:39:40;;;;;;;4.67;2.20;;;;;;;;;;5042078;28;20213;-80
2023/08/31 09:42:06;;;;;;;2.43;1.90;;;;;;;;;;5046872;28;20199;-80
2023/08/31 09:44:32;;;;;;;4.17;2.00;;;;;;;;;;5050103;28;20206;-79
2023/08/31 09:46:58;;;;;;;4.00;2.20;;;;;;;;;;5047634;28;20744;-80
2023/08/31 09:49:25;;;;;;;3.97;2.10;;;;;;;;;;5046740;28;20272;-80
2023/08/31 09:51:52;;;;;;;4.23;2.17;;;;;;;;;;5051551;28;20190;-79
2023/08/31 09:54:19;;;;;;;5.63;2.37;;;;;;;;;;5042521;28;20222;-80
2023/08/31 09:56:46;;;;;;;4.27;2.03;;;;;;;;;;5042364;28;20190;-80
2023/08/31 09:59:13;;;;;;;3.00;2.00;;;;;;;;;;5053660;28;20248;-80
2023/08/31 10:01:44;;;;;;;5.27;2.10;;;;;;;;;;5050340;28;20533;-80
2023/08/31 10:04:12;;;;;;;4.60;2.43;;;;;;;;;;5033574;28;20210;-80
2023/08/31 10:06:42;;;;;;;5.00;2.20;;;;;;;;;;5049445;28;20186;-80
2023/08/31 10:09:11;;;;;;;4.23;2.37;;;;;;;;;;5044508;28;20186;-79
2023/08/31 10:11:39;;;;;;;5.30;2.10;;;;;;;;;;5049020;28;20303;-81
2023/08/31 10:14:06;;;;;;;4.50;2.00;;;;;;;;;;5048723;28;20238;-80
2023/08/31 10:16:32;;;;;;;3.20;2.13;;;;;;;;;;5053728;28;20221;-80
2023/08/31 10:18:59;;;;;;;2.30;1.60;;;;;;;;;;5041804;28;20195;-80
2023/08/31 10:21:25;;;;;;;3.83;2.00;;;;;;;;;;5053781;28;20551;-80
2023/08/31 10:23:51;;;;;;;3.77;2.10;;;;;;;;;;5050997;28;20243;-80
2023/08/31 10:26:36;;;;;;;2.10;1.87;;;;;;;;;;5047012;28;20668;-80
2023/08/31 10:29:03;;;;;;;3.20;1.80;;;;;;;;;;5047656;28;20708;-80
2023/08/31 10:31:30;;;;;;;3.43;1.83;;;;;;;;;;5052376;28;20186;-80
2023/08/31 10:33:57;;;;;;;2.13;1.60;;;;;;;;;;5030762;28;20311;-80
2023/08/31 10:36:34;;;;;;;3.27;2.03;;;;;;;;;;5038878;28;20190;-81
2023/08/31 10:39:02;;;;;;;3.13;2.00;;;;;;;;;;5047182;28;20206;-80
2023/08/31 10:41:35;;;;;;;2.67;2.00;;;;;;;;;;5053287;28;20197;-80
2023/08/31 10:44:01;;;;;;;3.73;2.20;;;;;;;;;;5053311;28;20647;-80
2023/08/31 10:46:34;;;;;;;3.57;2.13;;;;;;;;;;5046140;28;20606;-79
2023/08/31 10:49:00;;;;;;;2.47;1.80;;;;;;;;;;5050418;28;20205;-80
2023/08/31 10:51:28;;;;;;;2.90;1.83;;;;;;;;;;5041356;28;20190;-79
2023/08/31 10:54:04;;;;;;;3.27;2.00;;;;;;;;;;5047346;28;20209;-80
2023/08/31 10:56:31;;;;;;;2.77;1.80;;;;;;;;;;5045771;28;20185;-80
2023/08/31 10:59:00;;;;;;;3.43;1.90;;;;;;;;;;5042719;28;20249;-80
2023/08/31 11:01:45;;;;;;;4.13;1.80;;;;;;;;;;5045504;28;20186;-79
2023/08/31 11:04:12;;;;;;;4.77;1.67;;;;;;;;;;5049555;28;20229;-80
2023/08/31 11:06:38;;;;;;;2.37;1.77;;;;;;;;;;5048660;28;20770;-80
2023/08/31 11:09:05;;;;;;;2.90;1.80;;;;;;;;;;5038202;28;20653;-81
2023/08/31 11:11:40;;;;;;;4.43;1.90;;;;;;;;;;5045168;28;20189;-80
2023/08/31 11:14:09;;;;;;;2.73;1.87;;;;;;;;;;5043158;28;20213;-80
2023/08/31 11:16:38;;;;;;;3.00;1.90;;;;;;;;;;5035288;28;20194;-80
2023/08/31 11:19:04;;;;;;;2.83;1.97;;;;;;;;;;5045148;28;20210;-80
2023/08/31 11:21:31;;;;;;;1.83;1.70;;;;;;;;;;5049817;28;20232;-80
2023/08/31 11:23:58;;;;;;;3.13;1.77;;;;;;;;;;5049445;28;20199;-80
2023/08/31 11:26:27;;;;;;;2.83;1.70;;;;;;;;;;5045620;28;20181;-80
2023/08/31 11:28:56;;;;;;;3.43;1.87;;;;;;;;;;5046638;28;20194;-80
2023/08/31 11:31:25;;;;;;;3.80;1.70;;;;;;;;;;5048488;28;20186;-80
2023/08/31 11:33:51;;;;;;;3.13;1.57;;;;;;;;;;5044869;28;20225;-80
2023/08/31 11:36:18;;;;;;;2.23;1.90;;;;;;;;;;5042136;28;20265;-80
2023/08/31 11:38:44;;;;;;;3.67;2.00;;;;;;;;;;5049597;28;20685;-80
2023/08/31 11:41:11;;;;;;;2.23;1.83;;;;;;;;;;5048650;28;20182;-80
2023/08/31 11:43:38;;;;;;;2.07;1.87;;;;;;;;;;5044654;28;20215;-79
2023/08/31 11:46:05;;;;;;;4.10;2.07;;;;;;;;;;5048856;28;20266;-80
2023/08/31 11:48:32;;;;;;;3.10;2.03;;;;;;;;;;5050098;28;20219;-80
2023/08/31 11:50:59;;;;;;;3.33;2.07;;;;;;;;;;5040804;28;20179;-80
2023/08/31 11:53:25;;;;;;;2.43;2.03;;;;;;;;;;5052001;28;20195;-80
2023/08/31 11:55:53;;;;;;;4.00;2.13;;;;;;;;;;5049845;28;20208;-79
2023/08/31 11:58:19;;;;;;;3.30;1.90;;;;;;;;;;5053134;28;20237;-80
2023/08/31 12:00:46;;;;;;;3.73;2.07;;;;;;;;;;5046487;28;20688;-79
2023/08/31 12:03:13;;;;;;;2.77;1.83;;;;;;;;;;5047760;28;20187;-80
2023/08/31 12:05:49;;;;;;;3.53;2.13;;;;;;;;;;5050053;28;20269;-80
2023/08/31 12:08:15;;;;;;;4.10;2.23;;;;;;;;;;5047148;28;20197;-80
2023/08/31 12:10:42;;;;;;;4.10;2.13;;;;;;;;;;5035446;28;20214;-80
2023/08/31 12:13:12;;;;;;;3.90;2.00;;;;;;;;;;5050253;28;20692;-80
2023/08/31 12:15:38;;;;;;;5.80;2.63;;;;;;;;;;5048911;28;20181;-80
2023/08/31 12:18:23;;;;;;;4.00;2.13;;;;;;;;;;5041941;28;20182;-80
2023/08/31 12:20:52;;;;;;;5.97;2.30;;;;;;;;;;5048821;28;20216;-80
2023/08/31 12:23:21;;;;;;;5.97;2.10;;;;;;;;;;5048693;28;20205;-79
2023/08/31 12:25:51;;;;;;;3.93;2.00;;;;;;;;;;5047399;28;20212;-80
2023/08/31 12:28:17;;;;;;;3.83;2.30;;;;;;;;;;5046137;28;20200;-80
2023/08/31 12:30:48;;;;;;;3.80;2.07;;;;;;;;;;5043193;28;20736;-81
2023/08/31 12:33:14;;;;;;;4.97;2.10;;;;;;;;;;5047952;28;20288;-80
2023/08/31 12:35:40;;;;;;;4.37;2.20;;;;;;;;;;5043286;28;20218;-80
2023/08/31 12:38:07;;;;;;;5.63;2.40;;;;;;;;;;5052023;28;20186;-81
2023/08/31 12:40:33;;;;;;;5.60;2.50;;;;;;;;;;5026887;28;20183;-80
2023/08/31 12:42:59;;;;;;;5.13;2.30;;;;;;;;;;5042096;28;20652;-80
2023/08/31 12:45:25;;;;;;;4.20;2.33;;;;;;;;;;5040898;28;20657;-80
2023/08/31 12:47:51;;;;;;;8.53;2.47;;;;;;;;;;5044412;28;20186;-80
2023/08/31 12:50:18;;;;;;;6.90;2.80;;;;;;;;;;5046282;28;20194;-80
2023/08/31 12:52:45;;;;;;;5.13;2.30;;;;;;;;;;5033875;28;20188;-81
2023/08/31 12:55:15;;;;;;;5.80;2.67;;;;;;;;;;5048457;28;20205;-80
2023/08/31 12:57:41;;;;;;;5.63;2.67;;;;;;;;;;5034761;28;20236;-80
2023/08/31 13:00:12;;;;;;;3.97;2.33;;;;;;;;;;5047545;28;20220;-80
2023/08/31 13:02:39;;;;;;;5.00;2.50;;;;;;;;;;5051180;28;20181;-79
2023/08/31 13:05:05;;;;;;;6.17;2.80;;;;;;;;;;5050456;28;20722;-80
2023/08/31 13:07:32;;;;;;;5.87;2.40;;;;;;;;;;5051882;28;20185;-80
2023/08/31 13:10:00;;;;;;;5.10;2.23;;;;;;;;;;5055974;28;20188;-80
2023/08/31 13:12:26;;;;;;;5.47;2.50;;;;;;;;;;5051050;28;20266;-80
2023/08/31 13:14:52;;;;;;;3.93;2.20;;;;;;;;;;5053468;28;20201;-81
2023/08/31 13:17:18;;;;;;;6.47;2.40;;;;;;;;;;5047743;28;20683;-81
2023/08/31 13:19:44;;;;;;;3.70;2.40;;;;;;;;;;5051620;28;20267;-81
2023/08/31 13:22:15;;;;;;;4.20;2.50;;;;;;;;;;5050721;28;20190;-81
2023/08/31 13:24:41;;;;;;;6.77;2.30;;;;;;;;;;5050661;28;20696;-80
2023/08/31 13:27:07;;;;;;;5.17;2.37;;;;;;;;;;5048839;28;20174;-80
2023/08/31 13:29:33;;;;;;;5.00;2.40;;;;;;;;;;5020652;28;20182;-80
2023/08/31 13:31:59;;;;;;;7.77;2.77;;;;;;;;;;5050570;28;20270;-80
2023/08/31 13:34:25;;;;;;;4.17;2.37;;;;;;;;;;5052855;28;20219;-80
2023/08/31 13:36:52;;;;;;;3.43;2.20;;;;;;;;;;5047318;28;20255;-81
2023/08/31 13:39:18;;;;;;;5.40;2.30;;;;;;;;;;5050244;28;20288;-80
2023/08/31 13:41:45;;;;;;;4.77;2.40;;;;;;;;;;5049940;28;20675;-81
2023/08/31 13:44:12;;;;;;;3.17;2.20;;;;;;;;;;5050369;28;20202;-79
2023/08/31 13:46:38;;;;;;;5.07;2.30;;;;;;;;;;5060057;28;20182;-79
2023/08/31 13:49:04;;;;;;;3.23;2.00;;;;;;;;;;5054760;28;20688;-80
2023/08/31 13:51:30;;;;;;;3.90;2.27;;;;;;;;;;5025051;28;20189;-81
2023/08/31 13:53:57;;;;;;;3.97;2.20;;;;;;;;;;5033338;28;20221;-81
2023/08/31 13:56:23;;;;;;;4.60;2.30;;;;;;;;;;5053971;28;20328;-80
2023/08/31 13:58:49;;;;;;;4.00;2.20;;;;;;;;;;5053237;28;20205;-79
2023/08/31 14:01:15;;;;;;;4.93;2.57;;;;;;;;;;5050165;28;20190;-80
2023/08/31 14:03:42;;;;;;;5.87;2.30;;;;;;;;;;5050511;28;20605;-80
2023/08/31 14:06:08;;;;;;;4.77;2.50;;;;;;;;;;5048260;28;20191;-80
2023/08/31 14:08:34;;;;;;;4.87;2.30;;;;;;;;;;5049611;28;20277;-80
2023/08/31 14:11:01;;;;;;;4.03;2.30;;;;;;;;;;5049241;28;20213;-80
2023/08/31 14:13:27;;;;;;;5.17;2.50;;;;;;;;;;5050564;28;20226;-80
2023/08/31 14:15:53;;;;;;;6.17;2.70;;;;;;;;;;5031962;28;20186;-80
2023/08/31 14:18:21;;;;;;;4.73;2.43;;;;;;;;;;5033669;28;20178;-78
2023/08/31 14:20:47;;;;;;;4.30;2.20;;;;;;;;;;5044584;28;20178;-80
2023/08/31 14:23:13;;;;;;;6.40;2.40;;;;;;;;;;5047293;28;20181;-80
2023/08/31 14:25:39;;;;;;;6.77;2.50;;;;;;;;;;5047035;28;20178;-80
2023/08/31 14:28:05;;;;;;;4.90;2.40;;;;;;;;;;5051352;28;20189;-80
2023/08/31 14:30:31;;;;;;;5.57;2.53;;;;;;;;;;5034707;28;20555;-80
2023/08/31 14:32:58;;;;;;;3.77;2.30;;;;;;;;;;5046694;28;20769;-80
2023/08/31 14:35:24;;;;;;;5.50;2.70;;;;;;;;;;5050871;28;20170;-80
2023/08/31 14:37:50;;;;;;;5.13;2.20;;;;;;;;;;5050719;28;20209;-80
2023/08/31 14:40:16;;;;;;;6.03;2.53;;;;;;;;;;5047607;28;20217;-79
2023/08/31 14:42:42;;;;;;;4.80;2.57;;;;;;;;;;5050134;28;20258;-79